createdAt,value
2023-03-11T00:00:20.075Z,14.07
2023-03-11T00:00:51.927Z,15.70
2023-03-11T00:01:23.666Z,14.47
2023-03-11T00:01:55.786Z,14.33
2023-03-11T00:02:27.561Z,12.43
2023-03-11T00:03:01.681Z,14.87
2023-03-11T00:03:33.485Z,13.87
2023-03-11T00:04:05.322Z,15.27
2023-03-11T00:04:37.106Z,14.77
2023-03-11T00:05:09.991Z,15.43
2023-03-11T00:05:44.550Z,14.70
2023-03-11T00:06:16.736Z,12.40
2023-03-11T00:06:48.506Z,12.23
2023-03-11T00:07:20.363Z,11.80
2023-03-11T00:07:52.540Z,13.13
2023-03-11T00:08:25.661Z,13.57
2023-03-11T00:08:57.497Z,14.77
2023-03-11T00:09:29.384Z,14.93
2023-03-11T00:10:01.158Z,15.27
2023-03-11T00:10:38.946Z,14.70
2023-03-11T00:11:10.684Z,15.23
2023-03-11T00:11:42.383Z,15.53
2023-03-11T00:12:15.361Z,14.40
2023-03-11T00:12:47.120Z,14.77
2023-03-11T00:13:19.008Z,14.43
2023-03-11T00:13:50.765Z,14.37
2023-03-11T00:14:22.759Z,14.03
2023-03-11T00:14:54.545Z,14.10
2023-03-11T00:15:28.017Z,13.93
2023-03-11T00:16:01.100Z,14.23
2023-03-11T00:16:32.878Z,13.57
2023-03-11T00:17:04.743Z,10.90
2023-03-11T00:17:36.586Z,10.07
2023-03-11T00:18:08.591Z,11.67
2023-03-11T00:18:40.416Z,11.90
2023-03-11T00:19:12.195Z,12.63
2023-03-11T00:19:43.898Z,14.13
2023-03-11T00:20:20.417Z,11.67
2023-03-11T00:20:52.813Z,11.90
2023-03-11T00:21:24.550Z,11.97
2023-03-11T00:21:56.700Z,11.20
2023-03-11T00:22:28.459Z,10.63
2023-03-11T00:23:01.667Z,11.10
2023-03-11T00:23:35.644Z,10.70
2023-03-11T00:24:07.620Z,10.63
2023-03-11T00:24:39.335Z,11.50
2023-03-11T00:25:12.700Z,12.00
2023-03-11T00:25:46.186Z,11.00
2023-03-11T00:26:18.085Z,10.03
2023-03-11T00:26:49.853Z,11.13
2023-03-11T00:27:21.621Z,11.33
2023-03-11T00:27:54.083Z,11.93
2023-03-11T00:28:26.914Z,11.57
2023-03-11T00:28:58.641Z,12.00
2023-03-11T00:29:30.377Z,11.73
2023-03-11T00:30:02.120Z,11.53
2023-03-11T00:30:34.185Z,12.23
2023-03-11T00:31:06.170Z,11.80
2023-03-11T00:31:38.013Z,10.87
2023-03-11T00:32:09.764Z,13.07
2023-03-11T00:32:41.830Z,15.30
2023-03-11T00:33:16.414Z,13.93
2023-03-11T00:33:48.544Z,13.27
2023-03-11T00:34:20.234Z,14.23
2023-03-11T00:34:51.957Z,13.20
2023-03-11T00:35:27.213Z,12.10
2023-03-11T00:35:58.980Z,11.70
2023-03-11T00:36:33.936Z,11.73
2023-03-11T00:37:05.721Z,11.40
2023-03-11T00:37:37.414Z,12.00
2023-03-11T00:38:13.902Z,12.17
2023-03-11T00:38:45.708Z,11.93
2023-03-11T00:39:17.492Z,12.00
2023-03-11T00:39:49.223Z,12.43
2023-03-11T00:40:22.292Z,12.23
2023-03-11T00:40:54.165Z,13.43
2023-03-11T00:41:26.089Z,13.23
2023-03-11T00:41:57.830Z,12.63
2023-03-11T00:42:29.681Z,11.47
2023-03-11T00:43:01.650Z,12.37
2023-03-11T00:43:33.691Z,12.73
2023-03-11T00:44:05.422Z,13.73
2023-03-11T00:44:37.112Z,12.93
2023-03-11T00:45:09.221Z,11.83
2023-03-11T00:45:41.273Z,11.73
2023-03-11T00:46:13.229Z,11.40
2023-03-11T00:46:45.021Z,12.30
2023-03-11T00:47:17.432Z,12.87
2023-03-11T00:47:49.247Z,12.43
2023-03-11T00:48:20.965Z,11.80
2023-03-11T00:48:52.867Z,12.17
2023-03-11T00:49:24.694Z,12.50
2023-03-11T00:49:56.416Z,12.00
2023-03-11T00:50:33.919Z,12.10
2023-03-11T00:51:07.615Z,12.20
2023-03-11T00:51:39.426Z,12.73
2023-03-11T00:52:11.160Z,12.73
2023-03-11T00:52:42.857Z,12.03
2023-03-11T00:53:14.859Z,11.23
2023-03-11T00:53:46.557Z,11.40
2023-03-11T00:54:18.587Z,12.23
2023-03-11T00:54:50.360Z,12.93
2023-03-11T00:55:25.527Z,13.20
2023-03-11T00:55:57.360Z,13.57
2023-03-11T00:56:29.176Z,13.00
2023-03-11T00:57:01.045Z,12.33
2023-03-11T00:57:32.793Z,14.00
2023-03-11T00:58:06.404Z,14.23
2023-03-11T00:58:38.657Z,14.20
2023-03-11T00:59:10.411Z,13.67
2023-03-11T00:59:42.140Z,16.30
2023-03-11T01:00:16.121Z,20.67
2023-03-11T01:00:47.930Z,24.07
2023-03-11T01:01:21.328Z,24.00
2023-03-11T01:01:53.092Z,23.97
2023-03-11T01:02:24.914Z,23.20
2023-03-11T01:02:57.458Z,22.10
2023-03-11T01:03:29.365Z,22.43
2023-03-11T01:04:01.166Z,21.33
2023-03-11T01:04:32.939Z,24.93
2023-03-11T01:05:05.942Z,23.70
2023-03-11T01:05:37.759Z,22.27
2023-03-11T01:06:09.597Z,21.10
2023-03-11T01:06:45.715Z,21.37
2023-03-11T01:07:17.647Z,21.13
2023-03-11T01:07:49.928Z,20.73
2023-03-11T01:08:21.658Z,18.67
2023-03-11T01:08:53.453Z,18.33
2023-03-11T01:09:25.157Z,17.43
2023-03-11T01:09:56.916Z,18.10
2023-03-11T01:10:30.705Z,18.87
2023-03-11T01:11:04.093Z,20.23
2023-03-11T01:11:35.907Z,21.60
2023-03-11T01:12:07.649Z,20.73
2023-03-11T01:12:39.616Z,20.60
2023-03-11T01:13:11.712Z,22.23
2023-03-11T01:13:43.463Z,21.57
2023-03-11T01:14:15.234Z,21.40
2023-03-11T01:14:46.972Z,21.13
2023-03-11T01:15:31.751Z,20.53
2023-03-11T01:16:03.706Z,19.07
2023-03-11T01:16:35.596Z,19.47
2023-03-11T01:17:07.306Z,19.47
2023-03-11T01:17:39.044Z,20.20
2023-03-11T01:18:10.849Z,22.07
2023-03-11T01:18:42.675Z,22.27
2023-03-11T01:19:15.391Z,22.63
2023-03-11T01:19:47.087Z,22.50
2023-03-11T01:20:19.090Z,21.93
2023-03-11T01:20:50.965Z,22.90
2023-03-11T01:21:22.663Z,22.50
2023-03-11T01:21:54.341Z,22.43
2023-03-11T01:22:26.422Z,22.33
2023-03-11T01:22:58.155Z,22.83
2023-03-11T01:23:30.177Z,21.03
2023-03-11T01:24:01.940Z,22.30
2023-03-11T01:24:33.819Z,22.17
2023-03-11T01:25:05.927Z,21.80
2023-03-11T01:25:37.692Z,22.10
2023-03-11T01:26:09.394Z,21.33
2023-03-11T01:26:41.165Z,21.50
2023-03-11T01:27:12.949Z,21.93
2023-03-11T01:27:44.979Z,20.67
2023-03-11T01:28:17.025Z,20.63
2023-03-11T01:28:48.830Z,20.07
2023-03-11T01:29:20.573Z,19.67
2023-03-11T01:29:52.335Z,20.33
2023-03-11T01:30:25.555Z,21.20
2023-03-11T01:30:57.345Z,23.53
2023-03-11T01:31:29.169Z,22.50
2023-03-11T01:32:00.953Z,20.13
2023-03-11T01:32:32.720Z,20.63
2023-03-11T01:33:05.158Z,19.50
2023-03-11T01:33:36.988Z,19.53
2023-03-11T01:34:08.730Z,19.53
2023-03-11T01:34:40.485Z,18.37
2023-03-11T01:35:15.359Z,20.33
2023-03-11T01:35:47.290Z,22.33
2023-03-11T01:36:19.053Z,24.63
2023-03-11T01:36:50.753Z,28.93
2023-03-11T01:37:22.579Z,30.17
2023-03-11T01:37:55.229Z,29.60
2023-03-11T01:38:27.026Z,31.20
2023-03-11T01:38:58.942Z,31.13
2023-03-11T01:39:31.125Z,31.07
2023-03-11T01:40:03.242Z,30.30
2023-03-11T01:40:41.880Z,29.93
2023-03-11T01:41:13.583Z,26.07
2023-03-11T01:41:45.361Z,27.10
2023-03-11T01:42:17.070Z,26.63
2023-03-11T01:42:48.867Z,22.30
2023-03-11T01:43:41.436Z,20.40
2023-03-11T01:44:13.750Z,18.60
2023-03-11T01:44:45.518Z,18.83
2023-03-11T01:45:40.463Z,20.30
2023-03-11T01:46:53.385Z,18.07
2023-03-11T01:47:34.571Z,12.43
2023-03-11T01:48:09.211Z,13.80
2023-03-11T01:48:45.188Z,16.23
2023-03-11T01:49:16.916Z,15.60
2023-03-11T01:49:49.130Z,15.40
2023-03-11T01:50:21.374Z,17.17
2023-03-11T01:50:53.609Z,16.53
2023-03-11T01:51:33.417Z,15.63
2023-03-11T01:52:08.171Z,14.50
2023-03-11T01:52:42.555Z,14.07
2023-03-11T01:53:16.701Z,14.30
2023-03-11T01:53:48.813Z,14.97
2023-03-11T01:54:25.795Z,14.17
2023-03-11T01:54:57.572Z,14.90
2023-03-11T01:55:31.240Z,16.57
2023-03-11T01:56:05.171Z,18.83
2023-03-11T01:56:38.909Z,19.43
2023-03-11T01:57:13.732Z,19.23
2023-03-11T01:57:47.874Z,21.00
2023-03-11T01:58:25.669Z,21.93
2023-03-11T01:58:58.673Z,22.50
2023-03-11T01:59:36.552Z,26.63
2023-03-11T02:00:12.603Z,38.40
2023-03-11T02:00:44.730Z,37.73
2023-03-11T02:01:16.993Z,31.97
2023-03-11T02:01:58.858Z,28.73
2023-03-11T02:02:42.144Z,24.23
2023-03-11T02:03:43.341Z,24.43
2023-03-11T02:04:16.242Z,31.63
2023-03-11T02:04:49.860Z,26.87
2023-03-11T02:05:23.557Z,25.73
2023-03-11T02:05:57.682Z,25.10
2023-03-11T02:06:31.915Z,25.00
2023-03-11T02:07:05.102Z,23.53
2023-03-11T02:07:39.978Z,26.77
2023-03-11T02:08:11.733Z,28.03
2023-03-11T02:08:44.642Z,24.40
2023-03-11T02:09:16.356Z,22.83
2023-03-11T02:09:48.134Z,22.17
2023-03-11T02:10:20.639Z,22.97
2023-03-11T02:10:54.442Z,23.00
2023-03-11T02:11:30.709Z,22.43
2023-03-11T02:12:04.279Z,20.33
2023-03-11T02:12:38.022Z,20.80
2023-03-11T02:13:10.764Z,19.47
2023-03-11T02:13:45.333Z,19.20
2023-03-11T02:14:17.909Z,18.50
2023-03-11T02:14:54.684Z,20.00
2023-03-11T02:15:26.982Z,19.17
2023-03-11T02:16:00.756Z,21.33
2023-03-11T02:16:33.267Z,21.90
2023-03-11T02:17:05.503Z,21.60
2023-03-11T02:17:39.950Z,20.87
2023-03-11T02:18:18.680Z,22.53
2023-03-11T02:18:50.558Z,24.30
2023-03-11T02:19:46.419Z,32.33
2023-03-11T02:20:37.169Z,33.77
2023-03-11T02:21:29.974Z,28.47
2023-03-11T02:22:03.116Z,27.30
2023-03-11T02:22:35.221Z,22.97
2023-03-11T02:23:07.134Z,22.50
2023-03-11T02:24:16.398Z,22.50
2023-03-11T02:25:13.660Z,22.87
2023-03-11T02:26:01.577Z,26.27
2023-03-11T02:27:01.809Z,24.73
2023-03-11T02:27:38.755Z,22.70
2023-03-11T02:28:14.976Z,22.10
2023-03-11T02:28:49.300Z,20.93
2023-03-11T02:29:23.390Z,21.27
2023-03-11T02:29:56.919Z,22.60
2023-03-11T02:30:31.159Z,22.13
2023-03-11T02:31:03.005Z,22.50
2023-03-11T02:31:38.582Z,22.03
2023-03-11T02:32:11.547Z,21.20
2023-03-11T02:32:48.559Z,20.03
2023-03-11T02:33:20.483Z,20.00
2023-03-11T02:33:54.793Z,20.60
2023-03-11T02:34:29.468Z,19.83
2023-03-11T02:35:01.201Z,20.20
2023-03-11T02:35:33.012Z,20.87
2023-03-11T02:36:05.259Z,21.43
2023-03-11T02:36:42.007Z,22.17
2023-03-11T02:37:16.919Z,19.80
2023-03-11T02:37:51.750Z,19.83
2023-03-11T02:38:24.333Z,21.50
2023-03-11T02:38:56.091Z,22.00
2023-03-11T02:39:33.742Z,21.63
2023-03-11T02:40:23.244Z,22.97
2023-03-11T02:41:02.574Z,21.93
2023-03-11T02:41:40.251Z,31.20
2023-03-11T02:42:26.059Z,40.20
2023-03-11T02:43:01.749Z,34.13
2023-03-11T02:43:43.945Z,29.90
2023-03-11T02:44:16.635Z,30.00
2023-03-11T02:45:01.400Z,26.87
2023-03-11T02:45:34.477Z,24.10
2023-03-11T02:46:10.252Z,24.97
2023-03-11T02:46:43.153Z,24.00
2023-03-11T02:47:17.062Z,24.77
2023-03-11T02:47:49.907Z,25.37
2023-03-11T02:48:22.781Z,23.33
2023-03-11T02:48:56.265Z,22.77
2023-03-11T02:49:28.456Z,22.90
2023-03-11T02:50:00.234Z,22.47
2023-03-11T02:50:34.592Z,23.27
2023-03-11T02:51:06.509Z,21.70
2023-03-11T02:51:38.262Z,25.90
2023-03-11T02:52:10.020Z,26.93
2023-03-11T02:52:41.799Z,23.67
2023-03-11T02:53:14.361Z,22.97
2023-03-11T02:53:53.114Z,22.50
2023-03-11T02:54:24.805Z,22.23
2023-03-11T02:54:56.584Z,23.97
2023-03-11T02:55:28.278Z,26.57
2023-03-11T02:56:00.048Z,28.10
2023-03-11T02:56:32.368Z,26.47
2023-03-11T02:57:04.383Z,24.70
2023-03-11T02:57:36.128Z,24.13
2023-03-11T02:58:07.962Z,23.57
2023-03-11T02:58:39.684Z,25.93
2023-03-11T02:59:11.455Z,24.97
2023-03-11T02:59:43.230Z,23.00
2023-03-11T03:00:17.449Z,23.17
2023-03-11T03:00:49.326Z,21.53
2023-03-11T03:01:21.491Z,26.27
2023-03-11T03:01:53.190Z,27.13
2023-03-11T03:02:24.985Z,25.03
2023-03-11T03:02:56.898Z,21.93
2023-03-11T03:03:28.673Z,22.20
2023-03-11T03:04:00.560Z,24.50
2023-03-11T03:04:32.388Z,24.33
2023-03-11T03:05:04.261Z,20.10
2023-03-11T03:05:36.020Z,19.40
2023-03-11T03:06:07.854Z,20.53
2023-03-11T03:06:39.583Z,20.20
2023-03-11T03:07:11.666Z,19.17
2023-03-11T03:07:43.404Z,19.03
2023-03-11T03:08:15.421Z,18.73
2023-03-11T03:08:47.211Z,19.03
2023-03-11T03:09:18.909Z,19.57
2023-03-11T03:09:50.731Z,20.47
2023-03-11T03:10:23.232Z,20.30
2023-03-11T03:10:54.997Z,19.90
2023-03-11T03:11:26.787Z,19.33
2023-03-11T03:11:58.524Z,18.30
2023-03-11T03:12:30.465Z,19.07
2023-03-11T03:13:02.223Z,19.80
2023-03-11T03:13:34.171Z,19.90
2023-03-11T03:14:05.873Z,19.23
2023-03-11T03:14:37.554Z,18.80
2023-03-11T03:15:10.657Z,19.93
2023-03-11T03:15:42.368Z,21.50
2023-03-11T03:16:14.174Z,22.53
2023-03-11T03:16:46.046Z,21.20
2023-03-11T03:17:17.901Z,25.27
2023-03-11T03:17:51.647Z,25.87
2023-03-11T03:18:23.534Z,22.30
2023-03-11T03:18:55.256Z,21.73
2023-03-11T03:19:27.032Z,21.67
2023-03-11T03:19:58.792Z,24.17
2023-03-11T03:20:30.830Z,24.70
2023-03-11T03:21:02.603Z,27.00
2023-03-11T03:21:34.372Z,27.33
2023-03-11T03:22:06.532Z,27.83
2023-03-11T03:22:39.520Z,28.73
2023-03-11T03:23:11.237Z,28.53
2023-03-11T03:23:42.937Z,27.73
2023-03-11T03:24:14.747Z,30.23
2023-03-11T03:24:46.617Z,29.20
2023-03-11T03:25:18.845Z,29.40
2023-03-11T03:25:50.532Z,30.53
2023-03-11T03:26:22.252Z,30.30
2023-03-11T03:26:54.023Z,30.27
2023-03-11T03:27:25.711Z,30.07
2023-03-11T03:27:57.474Z,33.70
2023-03-11T03:28:29.188Z,36.97
2023-03-11T03:29:00.873Z,38.13
2023-03-11T03:29:32.664Z,36.57
2023-03-11T03:30:05.897Z,37.97
2023-03-11T03:30:38.481Z,36.17
2023-03-11T03:31:11.675Z,33.93
2023-03-11T03:31:43.569Z,32.90
2023-03-11T03:32:15.354Z,28.87
2023-03-11T03:32:47.137Z,27.20
2023-03-11T03:33:18.878Z,30.47
2023-03-11T03:33:50.566Z,35.97
2023-03-11T03:34:22.283Z,39.50
2023-03-11T03:34:59.015Z,36.03
2023-03-11T03:35:31.208Z,31.80
2023-03-11T03:36:07.836Z,28.23
2023-03-11T03:36:39.657Z,24.53
2023-03-11T03:37:11.356Z,21.53
2023-03-11T03:37:43.084Z,19.63
2023-03-11T03:38:15.088Z,18.63
2023-03-11T03:38:46.868Z,17.53
2023-03-11T03:39:19.989Z,18.00
2023-03-11T03:39:51.806Z,18.47
2023-03-11T03:40:23.647Z,18.67
2023-03-11T03:40:55.382Z,17.23
2023-03-11T03:41:27.851Z,17.53
2023-03-11T03:41:59.666Z,17.40
2023-03-11T03:42:31.879Z,18.53
2023-03-11T03:43:04.377Z,18.43
2023-03-11T03:43:36.168Z,17.77
2023-03-11T03:44:07.866Z,16.23
2023-03-11T03:44:39.572Z,12.57
2023-03-11T03:45:11.620Z,11.23
2023-03-11T03:45:43.374Z,14.40
2023-03-11T03:46:15.552Z,15.10
2023-03-11T03:46:47.413Z,13.73
2023-03-11T03:47:20.542Z,11.33
2023-03-11T03:47:52.349Z,11.17
2023-03-11T03:48:24.312Z,10.57
2023-03-11T03:48:56.225Z,10.40
2023-03-11T03:49:27.966Z,9.93
2023-03-11T03:49:59.670Z,10.60
2023-03-11T03:50:31.466Z,11.03
2023-03-11T03:51:05.659Z,10.50
2023-03-11T03:51:37.355Z,10.63
2023-03-11T03:52:10.493Z,9.20
2023-03-11T03:52:42.299Z,9.37
2023-03-11T03:53:14.198Z,8.93
2023-03-11T03:53:46.754Z,8.97
2023-03-11T03:54:18.507Z,8.03
2023-03-11T03:54:50.860Z,6.53
2023-03-11T03:55:22.611Z,5.97
2023-03-11T03:55:54.785Z,6.07
2023-03-11T03:56:26.661Z,5.47
2023-03-11T03:56:58.943Z,5.13
2023-03-11T03:57:30.691Z,4.10
2023-03-11T03:58:02.398Z,3.57
2023-03-11T03:58:34.275Z,3.70
2023-03-11T03:59:06.011Z,3.10
2023-03-11T03:59:37.822Z,2.77
2023-03-11T04:00:10.433Z,2.97
2023-03-11T04:00:42.304Z,3.80
2023-03-11T04:01:14.408Z,3.80
2023-03-11T04:01:46.149Z,3.87
2023-03-11T04:02:17.897Z,3.83
2023-03-11T04:02:49.586Z,3.83
2023-03-11T04:03:21.283Z,3.77
2023-03-11T04:03:53.142Z,3.47
2023-03-11T04:04:24.914Z,3.73
2023-03-11T04:04:56.858Z,3.60
2023-03-11T04:05:28.591Z,3.67
2023-03-11T04:06:23.415Z,3.47
2023-03-11T04:06:55.214Z,3.10
2023-03-11T04:07:26.906Z,3.33
2023-03-11T04:07:58.751Z,3.47
2023-03-11T04:08:30.537Z,2.93
2023-03-11T04:09:02.271Z,2.73
2023-03-11T04:09:34.105Z,3.03
2023-03-11T04:10:06.552Z,2.97
2023-03-11T04:10:38.261Z,2.23
2023-03-11T04:11:10.107Z,2.10
2023-03-11T04:11:41.801Z,2.20
2023-03-11T04:12:15.636Z,2.90
2023-03-11T04:12:47.373Z,2.43
2023-03-11T04:13:19.121Z,2.40
2023-03-11T04:13:50.906Z,2.37
2023-03-11T04:14:22.677Z,2.30
2023-03-11T04:14:54.459Z,2.33
2023-03-11T04:15:26.284Z,2.53
2023-03-11T04:15:58.091Z,2.57
2023-03-11T04:16:30.098Z,2.60
2023-03-11T04:17:01.945Z,3.40
2023-03-11T04:17:33.697Z,3.10
2023-03-11T04:18:05.727Z,3.47
2023-03-11T04:18:37.456Z,3.67
2023-03-11T04:19:09.879Z,3.53
2023-03-11T04:19:41.656Z,3.27
2023-03-11T04:20:13.593Z,4.00
2023-03-11T04:20:46.584Z,4.40
2023-03-11T04:21:18.465Z,4.47
2023-03-11T04:21:52.021Z,3.63
2023-03-11T04:22:23.793Z,3.53
2023-03-11T04:22:55.478Z,3.43
2023-03-11T04:23:27.166Z,3.47
2023-03-11T04:23:59.857Z,3.67
2023-03-11T04:24:31.903Z,3.43
2023-03-11T04:25:03.871Z,3.10
2023-03-11T04:25:35.694Z,3.67
2023-03-11T04:26:07.449Z,3.80
2023-03-11T04:26:39.532Z,3.57
2023-03-11T04:27:11.265Z,3.77
2023-03-11T04:27:46.093Z,3.40
2023-03-11T04:28:17.911Z,3.83
2023-03-11T04:28:49.929Z,3.53
2023-03-11T04:29:21.680Z,3.40
2023-03-11T04:29:53.477Z,2.93
2023-03-11T04:30:25.424Z,3.10
2023-03-11T04:30:57.368Z,3.10
2023-03-11T04:31:29.239Z,2.57
2023-03-11T04:32:00.979Z,2.57
2023-03-11T04:32:32.782Z,3.47
2023-03-11T04:33:04.511Z,6.90
2023-03-11T04:33:36.257Z,8.97
2023-03-11T04:34:08.102Z,11.43
2023-03-11T04:34:39.889Z,10.23
2023-03-11T04:35:11.678Z,10.73
2023-03-11T04:35:43.526Z,15.03
2023-03-11T04:36:15.336Z,18.00
2023-03-11T04:36:47.074Z,26.77
2023-03-11T04:37:18.880Z,26.70
2023-03-11T04:37:50.619Z,21.67
2023-03-11T04:38:22.583Z,18.17
2023-03-11T04:38:57.036Z,18.53
2023-03-11T04:39:28.860Z,20.97
2023-03-11T04:40:00.606Z,21.03
2023-03-11T04:40:32.645Z,19.13
2023-03-11T04:41:06.391Z,17.40
2023-03-11T04:41:38.182Z,14.40
2023-03-11T04:42:09.926Z,15.40
2023-03-11T04:42:41.888Z,14.10
2023-03-11T04:43:13.615Z,13.33
2023-03-11T04:43:45.438Z,13.53
2023-03-11T04:44:17.171Z,13.73
2023-03-11T04:44:49.035Z,11.47
2023-03-11T04:45:20.896Z,10.10
2023-03-11T04:45:52.792Z,10.07
2023-03-11T04:46:24.611Z,9.43
2023-03-11T04:46:57.280Z,10.80
2023-03-11T04:47:29.074Z,10.80
2023-03-11T04:48:00.805Z,11.63
2023-03-11T04:48:32.568Z,10.27
2023-03-11T04:49:04.289Z,8.50
2023-03-11T04:49:36.186Z,8.80
2023-03-11T04:50:08.082Z,9.47
2023-03-11T04:50:39.853Z,8.07
2023-03-11T04:51:11.613Z,6.93
2023-03-11T04:51:43.354Z,6.03
2023-03-11T04:52:15.256Z,5.37
2023-03-11T04:52:47.359Z,5.60
2023-03-11T04:53:19.347Z,6.13
2023-03-11T04:53:51.116Z,5.63
2023-03-11T04:54:22.805Z,3.93
2023-03-11T04:54:54.531Z,3.83
2023-03-11T04:55:26.342Z,3.83
2023-03-11T04:55:58.067Z,3.87
2023-03-11T04:56:29.969Z,4.33
2023-03-11T04:57:01.875Z,4.17
2023-03-11T04:57:33.669Z,4.13
2023-03-11T04:58:05.466Z,4.83
2023-03-11T04:58:37.442Z,4.70
2023-03-11T04:59:09.189Z,4.60
2023-03-11T04:59:40.955Z,4.77
2023-03-11T05:00:13.985Z,4.70
2023-03-11T05:00:45.987Z,7.10
2023-03-11T05:01:17.848Z,9.57
2023-03-11T05:01:49.729Z,8.47
2023-03-11T05:02:21.519Z,6.90
2023-03-11T05:02:53.691Z,7.53
2023-03-11T05:03:25.856Z,7.57
2023-03-11T05:03:57.688Z,6.77
2023-03-11T05:04:29.496Z,6.83
2023-03-11T05:05:01.734Z,6.93
2023-03-11T05:05:33.548Z,7.27
2023-03-11T05:06:05.733Z,8.07
2023-03-11T05:06:37.468Z,9.00
2023-03-11T05:07:09.225Z,9.43
2023-03-11T05:07:40.951Z,9.57
2023-03-11T05:08:12.665Z,9.63
2023-03-11T05:08:44.388Z,8.30
2023-03-11T05:09:16.098Z,8.07
2023-03-11T05:09:47.836Z,8.47
2023-03-11T05:10:22.524Z,8.93
2023-03-11T05:10:54.478Z,11.23
2023-03-11T05:11:26.276Z,10.00
2023-03-11T05:11:58.024Z,8.00
2023-03-11T05:12:29.741Z,7.13
2023-03-11T05:13:01.405Z,6.27
2023-03-11T05:13:33.235Z,5.87
2023-03-11T05:14:04.975Z,5.40
2023-03-11T05:14:36.822Z,6.10
2023-03-11T05:15:08.790Z,7.30
2023-03-11T05:15:40.642Z,7.37
2023-03-11T05:16:12.444Z,6.10
2023-03-11T05:16:44.237Z,5.60
2023-03-11T05:17:18.664Z,5.23
2023-03-11T05:17:50.452Z,6.10
2023-03-11T05:18:22.307Z,5.63
2023-03-11T05:18:54.042Z,5.47
2023-03-11T05:19:31.785Z,5.10
2023-03-11T05:20:06.697Z,5.10
2023-03-11T05:20:38.689Z,6.07
2023-03-11T05:21:10.399Z,6.90
2023-03-11T05:21:42.094Z,6.17
2023-03-11T05:22:13.828Z,6.03
2023-03-11T05:22:45.542Z,5.70
2023-03-11T05:23:17.300Z,5.40
2023-03-11T05:23:49.754Z,5.13
2023-03-11T05:24:21.752Z,5.53
2023-03-11T05:24:53.549Z,5.80
2023-03-11T05:25:25.705Z,6.63
2023-03-11T05:25:57.468Z,6.40
2023-03-11T05:26:29.187Z,6.33
2023-03-11T05:27:02.083Z,6.57
2023-03-11T05:27:33.799Z,6.17
2023-03-11T05:28:05.805Z,5.40
2023-03-11T05:28:37.523Z,5.47
2023-03-11T05:29:09.445Z,5.93
2023-03-11T05:29:41.470Z,5.40
2023-03-11T05:30:13.378Z,5.97
2023-03-11T05:30:45.180Z,5.43
2023-03-11T05:31:16.992Z,5.03
2023-03-11T05:31:48.723Z,4.27
2023-03-11T05:32:20.951Z,4.20
2023-03-11T05:32:52.790Z,3.73
2023-03-11T05:33:24.598Z,3.73
2023-03-11T05:33:56.307Z,3.33
2023-03-11T05:34:28.093Z,3.47
2023-03-11T05:34:59.972Z,3.43
2023-03-11T05:35:31.692Z,3.13
2023-03-11T05:36:05.850Z,3.33
2023-03-11T05:36:37.626Z,3.50
2023-03-11T05:37:09.402Z,3.17
2023-03-11T05:37:41.269Z,2.90
2023-03-11T05:38:13.499Z,3.10
2023-03-11T05:38:45.215Z,3.17
2023-03-11T05:39:17.027Z,3.60
2023-03-11T05:39:48.913Z,4.03
2023-03-11T05:40:21.514Z,4.10
2023-03-11T05:40:53.802Z,3.70
2023-03-11T05:41:25.546Z,3.40
2023-03-11T05:41:57.281Z,3.70
2023-03-11T05:42:29.063Z,3.27
2023-03-11T05:43:00.807Z,3.20
2023-03-11T05:43:32.559Z,3.13
2023-03-11T05:44:04.724Z,2.87
2023-03-11T05:44:36.652Z,2.77
2023-03-11T05:45:09.635Z,3.27
2023-03-11T05:45:41.413Z,3.57
2023-03-11T05:46:13.249Z,3.27
2023-03-11T05:46:45.085Z,3.07
2023-03-11T05:47:18.227Z,3.23
2023-03-11T05:47:51.888Z,3.67
2023-03-11T05:48:23.709Z,3.57
2023-03-11T05:48:55.494Z,3.30
2023-03-11T05:49:28.083Z,3.17
2023-03-11T05:49:59.816Z,3.60
2023-03-11T05:50:31.894Z,3.13
2023-03-11T05:51:11.901Z,3.93
2023-03-11T05:51:43.747Z,3.40
2023-03-11T05:52:15.963Z,3.63
2023-03-11T05:52:47.829Z,3.30
2023-03-11T05:53:19.654Z,3.40
2023-03-11T05:53:51.475Z,2.70
2023-03-11T05:54:23.220Z,2.83
2023-03-11T05:54:54.916Z,2.93
2023-03-11T05:55:26.637Z,3.83
2023-03-11T05:55:59.833Z,4.77
2023-03-11T05:56:31.723Z,4.10
2023-03-11T05:57:03.743Z,3.77
2023-03-11T05:57:35.801Z,3.03
2023-03-11T05:58:07.535Z,2.33
2023-03-11T05:58:39.298Z,2.20
2023-03-11T05:59:15.801Z,2.37
2023-03-11T05:59:48.118Z,2.53
2023-03-11T06:00:20.629Z,2.63
2023-03-11T06:00:52.396Z,3.00
2023-03-11T06:01:24.114Z,2.77
2023-03-11T06:01:55.922Z,2.73
2023-03-11T06:02:27.699Z,2.10
2023-03-11T06:02:59.480Z,1.57
2023-03-11T06:03:31.268Z,1.80
2023-03-11T06:04:03.395Z,1.97
2023-03-11T06:04:37.062Z,1.90
2023-03-11T06:05:11.642Z,2.17
2023-03-11T06:05:49.635Z,2.83
2023-03-11T06:06:21.379Z,3.77
2023-03-11T06:06:53.789Z,4.83
2023-03-11T06:07:25.549Z,5.77
2023-03-11T06:07:57.440Z,5.93
2023-03-11T06:08:30.856Z,6.00
2023-03-11T06:09:04.240Z,6.13
2023-03-11T06:09:37.117Z,5.87
2023-03-11T06:10:09.735Z,4.97
2023-03-11T06:10:42.183Z,5.10
2023-03-11T06:11:14.425Z,5.40
2023-03-11T06:11:46.410Z,5.47
2023-03-11T06:12:18.854Z,5.13
2023-03-11T06:12:50.572Z,5.23
2023-03-11T06:13:22.448Z,4.27
2023-03-11T06:13:55.983Z,3.80
2023-03-11T06:14:31.688Z,3.40
2023-03-11T06:15:03.586Z,3.73
2023-03-11T06:15:37.037Z,4.03
2023-03-11T06:16:09.561Z,3.70
2023-03-11T06:16:42.089Z,4.23
2023-03-11T06:17:14.144Z,5.13
2023-03-11T06:17:45.987Z,4.57
2023-03-11T06:18:17.812Z,5.03
2023-03-11T06:18:49.592Z,4.70
2023-03-11T06:19:21.698Z,4.23
2023-03-11T06:19:53.406Z,4.80
2023-03-11T06:20:25.619Z,5.53
2023-03-11T06:21:02.340Z,5.33
2023-03-11T06:21:34.074Z,4.57
2023-03-11T06:22:05.811Z,5.53
2023-03-11T06:22:40.105Z,6.13
2023-03-11T06:23:12.122Z,8.13
2023-03-11T06:23:44.179Z,10.10
2023-03-11T06:24:15.914Z,10.23
2023-03-11T06:24:47.791Z,11.37
2023-03-11T06:25:20.161Z,17.47
2023-03-11T06:25:59.657Z,27.23
2023-03-11T06:26:31.470Z,13.30
2023-03-11T06:27:03.364Z,7.43
2023-03-11T06:27:35.296Z,5.17
2023-03-11T06:28:07.467Z,4.10
2023-03-11T06:28:39.243Z,3.83
2023-03-11T06:29:15.498Z,3.90
2023-03-11T06:29:48.681Z,6.17
2023-03-11T06:30:20.796Z,8.10
2023-03-11T06:30:52.874Z,9.27
2023-03-11T06:31:27.843Z,7.53
2023-03-11T06:32:00.305Z,5.77
2023-03-11T06:32:32.250Z,6.03
2023-03-11T06:33:04.114Z,7.27
2023-03-11T06:33:35.986Z,6.47
2023-03-11T06:34:09.080Z,7.30
2023-03-11T06:34:40.866Z,7.50
2023-03-11T06:35:13.002Z,6.17
2023-03-11T06:35:45.273Z,6.10
2023-03-11T06:36:18.724Z,9.13
2023-03-11T06:36:50.562Z,18.90
2023-03-11T06:37:23.693Z,35.27
2023-03-11T06:37:55.452Z,26.77
2023-03-11T06:38:27.849Z,19.60
2023-03-11T06:38:59.820Z,17.33
2023-03-11T06:39:31.656Z,19.00
2023-03-11T06:40:08.607Z,16.70
2023-03-11T06:40:40.572Z,14.20
2023-03-11T06:41:13.322Z,15.23
2023-03-11T06:41:45.255Z,12.83
2023-03-11T06:42:17.008Z,9.50
2023-03-11T06:42:48.853Z,9.40
2023-03-11T06:43:22.338Z,12.07
2023-03-11T06:43:54.180Z,12.10
2023-03-11T06:44:25.975Z,10.77
2023-03-11T06:44:57.728Z,7.20
2023-03-11T06:45:29.485Z,4.33
2023-03-11T06:46:02.229Z,5.77
2023-03-11T06:46:34.064Z,9.00
2023-03-11T06:47:05.978Z,10.53
2023-03-11T06:47:37.838Z,14.67
2023-03-11T06:48:10.304Z,14.97
2023-03-11T06:48:42.403Z,12.03
2023-03-11T06:49:14.545Z,11.17
2023-03-11T06:49:46.824Z,9.47
2023-03-11T06:50:18.985Z,8.40
2023-03-11T06:50:58.417Z,7.37
2023-03-11T06:51:30.377Z,7.00
2023-03-11T06:52:03.586Z,5.87
2023-03-11T06:52:35.896Z,5.03
2023-03-11T06:53:07.826Z,3.73
2023-03-11T06:53:40.943Z,3.53
2023-03-11T06:54:13.257Z,3.93
2023-03-11T06:54:45.117Z,4.37
2023-03-11T06:55:17.003Z,3.97
2023-03-11T06:56:09.416Z,3.60
2023-03-11T06:56:41.192Z,3.37
2023-03-11T06:57:13.240Z,4.17
2023-03-11T06:57:45.806Z,3.80
2023-03-11T06:58:17.579Z,3.23
2023-03-11T06:58:50.062Z,3.33
2023-03-11T06:59:22.971Z,4.50
2023-03-11T06:59:54.783Z,4.60
2023-03-11T07:00:26.600Z,4.83
2023-03-11T07:01:16.218Z,5.90
2023-03-11T07:01:47.999Z,6.20
2023-03-11T07:02:19.754Z,4.37
2023-03-11T07:02:51.561Z,3.60
2023-03-11T07:03:23.355Z,4.10
2023-03-11T07:03:55.318Z,4.23
2023-03-11T07:04:27.239Z,5.27
2023-03-11T07:04:58.982Z,5.27
2023-03-11T07:05:30.731Z,5.23
2023-03-11T07:06:03.977Z,5.73
2023-03-11T07:06:36.845Z,6.03
2023-03-11T07:07:08.570Z,7.80
2023-03-11T07:07:40.272Z,9.27
2023-03-11T07:08:12.386Z,8.07
2023-03-11T07:08:45.974Z,7.17
2023-03-11T07:09:17.964Z,6.40
2023-03-11T07:09:49.740Z,8.63
2023-03-11T07:10:21.811Z,7.50